KPBF/PBF METAR and TAF weather

Enter ICAO airport designator
Station Type Date Time Source
KPBF METAR 2020/07/06 21:53 UTC NOAA

KPBF 062153Z AUTO 10006KT 10SM FEW032 32/22 A2993 RMK AO2 SLP130 T03170222


Station Type Date Time Source
KPBF Decoded METAR 2020/07/06 21:53 UTC NOAA

PINE BLUFF GRIDER FIELD, AR, United States (KPBF) 34-11N 091-56W 62M
Jul 06, 2020 - 05:53 PM EDT / 2020.07.06 2153 UTC
Wind: from the E (100 degrees) at 7 MPH (6 KT):0
Visibility: 10 mile(s):0
Sky conditions: mostly clear
Temperature: 89.1 F (31.7 C)
Heat index: 96.1 F (35.6 C):1
Dew Point: 72.0 F (22.2 C)
Relative Humidity: 57%
Pressure (altimeter): 29.93 in. Hg (1013 hPa)
ob: KPBF 062153Z AUTO 10006KT 10SM FEW032 32/22 A2993 RMK AO2 SLP130 T03170222
cycle: 22

Station Type Date Time Source
KPBF TAF 2020/07/06 18:27 UTC NOAA

TAF KPBF 061720Z 0618/0718 08008KT P6SM SCT020 BKN250
FM062000 11007KT P6SM VCTS BKN040CB BKN080
TEMPO 0620/0624 TS BKN025CB OVC040
FM070000 11005KT P6SM SCT040

Example: see airport list